createdAt,value
2023-01-27T00:00:09.257Z,2.63
2023-01-27T00:02:38.217Z,2.50
2023-01-27T00:05:05.099Z,3.13
2023-01-27T00:07:31.431Z,2.65
2023-01-27T00:09:57.739Z,2.63
2023-01-27T00:12:43.373Z,3.40
2023-01-27T00:15:10.350Z,2.53
2023-01-27T00:17:37.005Z,2.88
2023-01-27T00:20:04.171Z,2.80
2023-01-27T00:22:49.688Z,3.22
2023-01-27T00:25:16.043Z,3.85
2023-01-27T00:27:42.449Z,3.05
2023-01-27T00:30:09.214Z,3.17
2023-01-27T00:32:53.935Z,3.55
2023-01-27T00:35:20.222Z,4.07
2023-01-27T00:37:46.493Z,3.15
2023-01-27T00:40:13.933Z,3.40
2023-01-27T00:42:40.415Z,3.95
2023-01-27T00:45:25.511Z,3.45
2023-01-27T00:47:52.892Z,5.03
2023-01-27T00:50:19.970Z,4.40
2023-01-27T00:52:46.566Z,4.13
2023-01-27T00:55:15.864Z,4.63
2023-01-27T00:57:42.699Z,4.72
2023-01-27T01:00:09.961Z,4.57
2023-01-27T01:02:36.362Z,4.53
2023-01-27T01:05:02.969Z,5.72
2023-01-27T01:07:29.342Z,5.15
2023-01-27T01:09:56.135Z,5.10
2023-01-27T01:12:22.561Z,5.55
2023-01-27T01:14:48.899Z,5.80
2023-01-27T01:17:15.173Z,5.20
2023-01-27T01:19:41.537Z,5.63
2023-01-27T01:22:07.788Z,5.28
2023-01-27T01:24:34.069Z,5.72
2023-01-27T01:27:00.469Z,5.65
2023-01-27T01:29:26.785Z,6.28
2023-01-27T01:31:53.061Z,5.20
2023-01-27T01:34:19.438Z,5.53
2023-01-27T01:36:45.751Z,6.10
2023-01-27T01:39:12.053Z,5.53
2023-01-27T01:41:38.317Z,5.55
2023-01-27T01:44:24.821Z,5.40
2023-01-27T01:46:51.178Z,5.40
2023-01-27T01:49:18.914Z,5.18
2023-01-27T01:51:46.560Z,6.07
2023-01-27T01:54:16.697Z,5.72
2023-01-27T01:56:49.118Z,5.57
2023-01-27T01:59:19.189Z,4.85
2023-01-27T02:01:45.780Z,7.32
2023-01-27T02:04:15.744Z,5.25
2023-01-27T02:06:47.941Z,5.40
2023-01-27T02:09:14.403Z,5.35
2023-01-27T02:11:40.762Z,5.45
2023-01-27T02:14:07.143Z,5.70
2023-01-27T02:16:33.429Z,5.65
2023-01-27T02:18:59.777Z,5.28
2023-01-27T02:21:26.135Z,6.72
2023-01-27T02:23:57.102Z,6.22
2023-01-27T02:26:31.724Z,6.07
2023-01-27T02:29:04.101Z,6.43
2023-01-27T02:31:30.532Z,6.05
2023-01-27T02:34:16.689Z,6.78
2023-01-27T02:39:10.478Z,6.43
2023-01-27T02:41:39.776Z,7.10
2023-01-27T02:44:06.605Z,6.70
2023-01-27T02:46:33.188Z,6.78
2023-01-27T02:48:59.576Z,7.35
2023-01-27T02:51:25.938Z,6.82
2023-01-27T02:53:52.225Z,8.57
2023-01-27T02:56:18.560Z,8.25
2023-01-27T02:58:44.833Z,9.40
2023-01-27T03:01:11.173Z,8.52
2023-01-27T03:03:44.074Z,8.23
2023-01-27T03:06:11.022Z,7.88
2023-01-27T03:08:37.275Z,8.02
2023-01-27T03:11:03.652Z,8.45
2023-01-27T03:13:29.906Z,7.75
2023-01-27T03:16:17.062Z,7.95
2023-01-27T03:18:47.586Z,7.22
2023-01-27T03:21:14.167Z,8.57
2023-01-27T03:23:40.527Z,7.30
2023-01-27T03:26:07.471Z,8.00
2023-01-27T03:28:33.935Z,8.13
2023-01-27T03:31:01.601Z,7.70
2023-01-27T03:33:28.135Z,7.57
2023-01-27T03:36:13.095Z,6.10
2023-01-27T03:38:58.411Z,7.38
2023-01-27T03:41:43.240Z,6.90
2023-01-27T03:44:28.526Z,7.22
2023-01-27T03:46:54.859Z,6.35
2023-01-27T03:49:21.140Z,5.70
2023-01-27T03:51:47.807Z,5.72
2023-01-27T03:54:14.113Z,6.03
2023-01-27T03:56:40.406Z,6.18
2023-01-27T03:59:06.667Z,5.97
2023-01-27T04:01:32.928Z,5.28
2023-01-27T04:04:18.109Z,5.88
2023-01-27T04:06:54.787Z,5.20
2023-01-27T04:09:22.611Z,4.93
2023-01-27T04:11:54.930Z,5.05
2023-01-27T04:14:25.894Z,4.10
2023-01-27T04:16:53.284Z,4.78
2023-01-27T04:19:19.794Z,4.32
2023-01-27T04:21:46.838Z,4.57
2023-01-27T04:24:24.273Z,4.28
2023-01-27T04:26:55.608Z,4.85
2023-01-27T04:29:23.008Z,4.85
2023-01-27T04:31:49.482Z,4.72
2023-01-27T04:34:16.461Z,5.10
2023-01-27T04:36:42.836Z,5.60
2023-01-27T04:39:09.789Z,4.20
2023-01-27T04:41:36.690Z,4.53
2023-01-27T04:44:03.870Z,5.03
2023-01-27T04:46:30.416Z,4.30
2023-01-27T04:48:56.750Z,4.68
2023-01-27T04:51:23.049Z,4.28
2023-01-27T04:53:49.435Z,4.07
2023-01-27T04:56:24.668Z,4.20
2023-01-27T04:58:51.108Z,4.05
2023-01-27T05:01:17.846Z,4.03
2023-01-27T05:03:44.139Z,3.75
2023-01-27T05:06:10.985Z,3.42
2023-01-27T05:08:37.517Z,3.92
2023-01-27T05:11:03.858Z,4.68
2023-01-27T05:13:30.379Z,3.70
2023-01-27T05:16:06.794Z,3.30
2023-01-27T05:18:33.173Z,3.17
2023-01-27T05:21:01.055Z,3.17
2023-01-27T05:23:36.742Z,3.65
2023-01-27T05:28:29.295Z,3.17
2023-01-27T05:31:01.116Z,3.40
2023-01-27T05:33:27.460Z,3.42
2023-01-27T05:35:53.802Z,3.50
2023-01-27T05:38:20.050Z,3.75
2023-01-27T05:40:46.420Z,3.83
2023-01-27T05:43:12.665Z,3.92
2023-01-27T05:45:38.946Z,3.15
2023-01-27T05:48:05.341Z,3.13
2023-01-27T05:50:31.620Z,3.13
2023-01-27T05:52:57.899Z,3.17
2023-01-27T05:55:24.197Z,2.80
2023-01-27T05:57:50.558Z,2.90
2023-01-27T06:00:17.156Z,2.85
2023-01-27T06:02:43.479Z,3.08
2023-01-27T06:05:09.938Z,2.92
2023-01-27T06:07:36.245Z,2.35
2023-01-27T06:10:02.603Z,3.10
2023-01-27T06:12:28.845Z,2.42
2023-01-27T06:14:57.975Z,2.58
2023-01-27T06:17:24.307Z,2.35
2023-01-27T06:19:50.559Z,2.10
2023-01-27T06:22:17.868Z,2.20
2023-01-27T06:24:44.263Z,2.55
2023-01-27T06:27:10.872Z,2.22
2023-01-27T06:29:37.142Z,2.40
2023-01-27T06:32:03.615Z,2.45
2023-01-27T06:34:29.901Z,2.70
2023-01-27T06:36:56.165Z,2.75
2023-01-27T06:39:22.462Z,2.70
2023-01-27T06:41:49.332Z,2.42
2023-01-27T06:44:15.692Z,2.40
2023-01-27T06:46:42.185Z,2.47
2023-01-27T06:49:08.887Z,2.55
2023-01-27T06:51:35.213Z,2.38
2023-01-27T06:54:01.496Z,2.17
2023-01-27T06:56:27.759Z,2.53
2023-01-27T06:58:54.073Z,2.63
2023-01-27T07:01:21.749Z,2.80
2023-01-27T07:03:48.117Z,3.17
2023-01-27T07:06:16.090Z,3.22
2023-01-27T07:08:45.603Z,2.85
2023-01-27T07:11:12.009Z,3.08
2023-01-27T07:13:38.321Z,3.13
2023-01-27T07:16:04.911Z,2.33
2023-01-27T07:18:31.376Z,2.70
2023-01-27T07:20:57.813Z,2.50
2023-01-27T07:23:24.341Z,2.50
2023-01-27T07:25:50.749Z,2.72
2023-01-27T07:28:17.235Z,3.03
2023-01-27T07:30:44.096Z,2.20
2023-01-27T07:33:12.254Z,2.63
2023-01-27T07:35:39.188Z,2.17
2023-01-27T07:38:06.533Z,2.17
2023-01-27T07:40:32.870Z,2.60
2023-01-27T07:42:59.819Z,2.80
2023-01-27T07:45:26.467Z,2.42
2023-01-27T07:47:52.779Z,2.63
2023-01-27T07:50:22.109Z,1.98
2023-01-27T07:52:48.580Z,2.60
2023-01-27T07:55:15.113Z,1.95
2023-01-27T07:57:41.598Z,2.30
2023-01-27T08:00:08.130Z,1.92
2023-01-27T08:02:34.711Z,2.13
2023-01-27T08:05:00.992Z,2.20
2023-01-27T08:07:27.291Z,1.98
2023-01-27T08:09:54.835Z,2.50
2023-01-27T08:12:21.778Z,2.70
2023-01-27T08:14:48.106Z,1.98
2023-01-27T08:17:14.379Z,1.92
2023-01-27T08:19:40.732Z,1.88
2023-01-27T08:22:06.987Z,1.95
2023-01-27T08:24:33.269Z,2.40
2023-01-27T08:26:59.683Z,1.90
2023-01-27T08:29:26.027Z,2.33
2023-01-27T08:31:52.304Z,1.83
2023-01-27T08:34:19.088Z,1.70
2023-01-27T08:36:45.512Z,3.17
2023-01-27T08:39:11.869Z,2.38
2023-01-27T08:41:38.495Z,2.45
2023-01-27T08:44:04.864Z,2.25
2023-01-27T08:46:31.261Z,2.20
2023-01-27T08:48:57.660Z,2.10
2023-01-27T08:51:23.950Z,2.30
2023-01-27T08:53:50.825Z,2.38
2023-01-27T08:56:17.125Z,1.95
2023-01-27T08:58:45.675Z,2.20
2023-01-27T09:01:12.307Z,1.75
2023-01-27T09:03:38.677Z,2.20
2023-01-27T09:06:07.351Z,2.47
2023-01-27T09:08:33.719Z,2.45
2023-01-27T09:11:00.086Z,2.10
2023-01-27T09:13:28.214Z,2.13
2023-01-27T09:15:54.638Z,2.15
2023-01-27T09:18:20.989Z,1.73
2023-01-27T09:20:47.312Z,1.98
2023-01-27T09:23:13.670Z,2.03
2023-01-27T09:25:40.221Z,1.85
2023-01-27T09:28:09.921Z,2.20
2023-01-27T09:30:36.288Z,1.98
2023-01-27T09:33:02.662Z,2.42
2023-01-27T09:35:40.236Z,2.60
2023-01-27T09:38:07.083Z,2.25
2023-01-27T09:40:51.884Z,2.20
2023-01-27T09:43:24.342Z,2.38
2023-01-27T09:46:11.702Z,2.15
2023-01-27T09:48:56.961Z,2.42
2023-01-27T09:51:31.339Z,2.30
2023-01-27T09:54:13.071Z,2.50
2023-01-27T09:56:57.804Z,2.45
2023-01-27T09:59:27.170Z,2.38
2023-01-27T10:02:02.705Z,2.90
2023-01-27T10:04:32.200Z,2.63
2023-01-27T10:06:58.464Z,2.83
2023-01-27T10:09:24.715Z,2.83
2023-01-27T10:12:05.772Z,2.60
2023-01-27T10:14:50.832Z,2.65
2023-01-27T10:17:26.017Z,2.65
2023-01-27T10:19:55.468Z,2.30
2023-01-27T10:22:21.993Z,2.42
2023-01-27T10:24:59.461Z,2.65
2023-01-27T10:27:26.635Z,2.80
2023-01-27T10:29:52.852Z,2.80
2023-01-27T10:32:26.876Z,2.63
2023-01-27T10:35:05.658Z,2.45
2023-01-27T10:37:34.656Z,2.63
2023-01-27T10:40:00.943Z,2.38
2023-01-27T10:42:36.089Z,2.45
2023-01-27T10:45:02.392Z,2.55
2023-01-27T10:47:39.302Z,3.35
2023-01-27T10:50:35.196Z,3.13
2023-01-27T10:53:22.918Z,2.67
2023-01-27T10:55:52.371Z,2.70
2023-01-27T10:58:20.191Z,2.60
2023-01-27T11:01:19.419Z,2.80
2023-01-27T11:03:38.133Z,2.75
2023-01-27T11:06:08.272Z,2.60
2023-01-27T11:08:36.650Z,2.67
2023-01-27T11:11:24.125Z,2.67
2023-01-27T11:13:53.351Z,2.70
2023-01-27T11:16:19.943Z,2.47
2023-01-27T11:18:49.343Z,3.05
2023-01-27T11:21:19.010Z,2.83
2023-01-27T11:23:49.062Z,3.38
2023-01-27T11:26:18.419Z,3.15
2023-01-27T11:28:56.815Z,3.03
2023-01-27T11:31:32.780Z,3.40
2023-01-27T11:34:18.784Z,3.35
2023-01-27T11:36:45.477Z,3.33
2023-01-27T11:39:12.272Z,2.92
2023-01-27T11:41:41.006Z,3.03
2023-01-27T11:44:12.089Z,2.22
2023-01-27T11:46:38.415Z,2.40
2023-01-27T11:49:06.377Z,2.80
2023-01-27T11:51:35.761Z,2.75
2023-01-27T11:54:10.595Z,2.72
2023-01-27T11:56:37.854Z,2.75
2023-01-27T11:59:30.674Z,2.78
2023-01-27T12:01:59.022Z,2.80
2023-01-27T12:04:31.398Z,2.90
2023-01-27T12:07:10.790Z,2.40
2023-01-27T12:09:38.312Z,2.40
2023-01-27T12:12:15.374Z,2.72
2023-01-27T12:14:55.029Z,2.58
2023-01-27T12:17:24.487Z,2.67
2023-01-27T12:19:53.664Z,2.90
2023-01-27T12:22:40.125Z,3.58
2023-01-27T12:25:14.376Z,3.10
2023-01-27T12:27:46.378Z,3.00
2023-01-27T12:30:19.861Z,2.75
2023-01-27T12:32:47.341Z,3.22
2023-01-27T12:35:22.831Z,2.45
2023-01-27T12:37:49.530Z,3.13
2023-01-27T12:40:21.055Z,2.70
2023-01-27T12:42:48.895Z,3.08
2023-01-27T12:45:23.512Z,2.80
2023-01-27T12:48:17.228Z,2.55
2023-01-27T12:50:54.074Z,2.17
2023-01-27T12:53:21.347Z,2.55
2023-01-27T12:55:47.884Z,2.08
2023-01-27T12:58:23.159Z,2.25
2023-01-27T13:00:49.495Z,2.38
2023-01-27T13:03:16.277Z,2.42
2023-01-27T13:05:43.319Z,2.13
2023-01-27T13:08:17.356Z,2.28
2023-01-27T13:10:51.288Z,2.58
2023-01-27T13:13:24.952Z,2.60
2023-01-27T13:15:52.840Z,2.20
2023-01-27T13:18:23.473Z,3.05
2023-01-27T13:21:11.474Z,2.55
2023-01-27T13:23:38.942Z,2.53
2023-01-27T13:26:10.440Z,2.33
2023-01-27T13:28:50.493Z,2.80
2023-01-27T13:31:24.673Z,2.78
2023-01-27T13:33:54.564Z,2.35
2023-01-27T13:36:26.585Z,2.67
2023-01-27T13:39:11.195Z,2.50
2023-01-27T13:41:51.995Z,2.20
2023-01-27T13:44:30.417Z,2.20
2023-01-27T13:47:00.830Z,2.55
2023-01-27T13:49:33.142Z,2.45
2023-01-27T13:51:59.496Z,2.30
2023-01-27T13:54:25.954Z,2.13
2023-01-27T13:56:57.936Z,1.95
2023-01-27T13:59:24.342Z,2.25
2023-01-27T14:01:59.293Z,2.50
2023-01-27T14:04:31.803Z,2.67
2023-01-27T14:07:07.400Z,2.67
2023-01-27T14:09:52.590Z,2.00
2023-01-27T14:12:26.477Z,2.10
2023-01-27T14:15:05.147Z,2.33
2023-01-27T14:17:40.041Z,2.20
2023-01-27T14:20:35.533Z,2.78
2023-01-27T14:23:21.096Z,2.53
2023-01-27T14:25:53.636Z,2.17
2023-01-27T14:28:26.126Z,2.10
2023-01-27T14:30:55.887Z,2.67
2023-01-27T14:33:43.053Z,1.80
2023-01-27T14:36:13.591Z,1.98
2023-01-27T14:38:48.266Z,2.63
2023-01-27T14:41:17.927Z,2.10
2023-01-27T14:43:51.991Z,2.45
2023-01-27T14:46:28.294Z,2.47
2023-01-27T14:51:25.211Z,2.33
2023-01-27T14:54:03.494Z,2.50
2023-01-27T14:56:29.835Z,2.00
2023-01-27T14:59:28.677Z,2.40
2023-01-27T15:02:21.324Z,2.40
2023-01-27T15:04:53.812Z,2.97
2023-01-27T15:07:40.439Z,2.70
2023-01-27T15:10:15.733Z,2.97
2023-01-27T15:13:02.715Z,2.63
2023-01-27T15:15:47.243Z,2.78
2023-01-27T15:18:36.700Z,2.90
2023-01-27T15:21:18.750Z,2.90
2023-01-27T15:23:48.227Z,2.72
2023-01-27T15:26:16.898Z,2.95
2023-01-27T15:28:43.747Z,2.75
2023-01-27T15:31:21.492Z,2.90
2023-01-27T15:33:55.515Z,2.65
2023-01-27T15:36:27.851Z,2.70
2023-01-27T15:39:03.200Z,3.05
2023-01-27T15:41:29.639Z,2.78
2023-01-27T15:44:14.558Z,2.63
2023-01-27T15:46:51.217Z,2.60
2023-01-27T15:49:28.387Z,2.88
2023-01-27T15:51:56.772Z,2.40
2023-01-27T15:54:28.339Z,3.10
2023-01-27T15:56:55.238Z,2.75
2023-01-27T15:59:25.566Z,3.13
2023-01-27T16:02:10.531Z,3.55
2023-01-27T16:04:37.043Z,2.63
2023-01-27T16:07:04.391Z,2.50
2023-01-27T16:09:45.511Z,2.92
2023-01-27T16:12:24.442Z,2.67
2023-01-27T16:15:10.728Z,2.58
2023-01-27T16:17:56.790Z,2.20
2023-01-27T16:20:26.623Z,2.90
2023-01-27T16:23:05.938Z,2.45
2023-01-27T16:25:38.432Z,2.90
2023-01-27T16:28:25.086Z,3.38
2023-01-27T17:21:43.992Z,12.65
2023-01-27T17:24:22.979Z,4.57
2023-01-27T17:26:50.231Z,9.00
2023-01-27T17:29:18.409Z,6.55
2023-01-27T17:31:45.232Z,5.93
2023-01-27T17:34:16.290Z,5.93
2023-01-27T17:37:01.574Z,5.13
2023-01-27T17:39:27.989Z,4.93
2023-01-27T17:41:55.605Z,4.63
2023-01-27T17:44:21.953Z,4.25
2023-01-27T17:46:48.374Z,4.20
2023-01-27T17:49:17.173Z,4.38
2023-01-27T17:51:51.673Z,4.05
2023-01-27T17:54:35.243Z,3.65
2023-01-27T17:57:01.585Z,3.75
2023-01-27T17:59:28.369Z,4.25
2023-01-27T18:01:55.445Z,3.97
2023-01-27T18:04:22.942Z,3.65
2023-01-27T18:06:52.810Z,3.67
2023-01-27T18:09:20.731Z,4.00
2023-01-27T18:12:01.446Z,3.00
2023-01-27T18:14:32.487Z,3.42
2023-01-27T18:17:03.213Z,3.42
2023-01-27T18:19:29.667Z,3.28
2023-01-27T18:22:13.123Z,2.75
2023-01-27T18:24:40.179Z,3.05
2023-01-27T18:27:25.174Z,3.20
2023-01-27T18:29:52.588Z,3.78
2023-01-27T18:32:20.324Z,3.40
2023-01-27T18:34:48.267Z,3.80
2023-01-27T18:37:23.424Z,3.88
2023-01-27T18:39:49.818Z,3.97
2023-01-27T18:42:20.979Z,4.03
2023-01-27T18:44:50.889Z,3.38
2023-01-27T18:47:17.299Z,3.83
2023-01-27T18:49:44.396Z,3.90
2023-01-27T18:52:14.087Z,3.70
2023-01-27T18:54:40.679Z,3.92
2023-01-27T18:57:07.163Z,3.63
2023-01-27T18:59:33.848Z,3.38
2023-01-27T19:02:00.624Z,3.33
2023-01-27T19:04:27.099Z,3.20
2023-01-27T19:06:53.474Z,3.95
2023-01-27T19:09:20.028Z,3.50
2023-01-27T19:11:46.322Z,3.90
2023-01-27T19:14:12.588Z,3.20
2023-01-27T19:16:38.904Z,3.20
2023-01-27T19:19:08.344Z,3.70
2023-01-27T19:21:34.675Z,3.65
2023-01-27T19:24:01.133Z,3.80
2023-01-27T19:26:28.250Z,4.13
2023-01-27T19:28:55.828Z,4.07
2023-01-27T19:31:22.306Z,3.72
2023-01-27T19:33:48.767Z,3.97
2023-01-27T19:36:20.898Z,3.45
2023-01-27T19:38:48.501Z,3.92
2023-01-27T19:41:15.186Z,3.85
2023-01-27T19:43:42.095Z,4.35
2023-01-27T19:46:15.347Z,4.65
2023-01-27T19:48:41.904Z,4.70
2023-01-27T19:51:09.686Z,5.07
2023-01-27T19:53:36.040Z,4.45
2023-01-27T19:56:02.618Z,4.07
2023-01-27T19:58:29.371Z,5.03
2023-01-27T20:00:56.181Z,4.50
2023-01-27T20:03:23.136Z,4.68
2023-01-27T20:05:49.580Z,4.60
2023-01-27T20:08:17.438Z,4.78
2023-01-27T20:10:43.984Z,5.07
2023-01-27T20:13:14.635Z,5.28
2023-01-27T20:15:41.693Z,5.07
2023-01-27T20:18:15.156Z,5.40
2023-01-27T20:20:41.510Z,4.63
2023-01-27T20:23:09.141Z,5.30
2023-01-27T20:25:35.424Z,4.28
2023-01-27T20:28:01.830Z,5.30
2023-01-27T20:30:32.220Z,4.65
2023-01-27T20:32:59.049Z,4.50
2023-01-27T20:35:25.679Z,4.80
2023-01-27T20:37:52.728Z,4.25
2023-01-27T20:40:20.258Z,5.28
2023-01-27T20:42:46.759Z,5.10
2023-01-27T20:45:13.563Z,4.63
2023-01-27T20:47:40.243Z,4.68
2023-01-27T20:50:07.305Z,4.63
2023-01-27T20:52:37.308Z,5.10
2023-01-27T20:55:04.663Z,5.43
2023-01-27T20:57:31.259Z,6.10
2023-01-27T20:59:58.802Z,5.75
2023-01-27T21:02:28.823Z,5.75
2023-01-27T21:04:55.579Z,5.07
2023-01-27T21:07:22.605Z,5.68
2023-01-27T21:09:49.092Z,5.50
2023-01-27T21:12:15.646Z,6.00
2023-01-27T21:14:42.010Z,6.18
2023-01-27T21:17:08.339Z,6.05
2023-01-27T21:19:34.646Z,6.30
2023-01-27T21:22:00.901Z,5.93
2023-01-27T21:24:27.259Z,5.90
2023-01-27T21:26:54.274Z,7.10
2023-01-27T21:29:21.296Z,6.50
2023-01-27T21:31:48.471Z,8.00
2023-01-27T21:34:14.924Z,7.43
2023-01-27T21:36:41.182Z,6.15
2023-01-27T21:39:07.477Z,6.60
2023-01-27T21:41:52.460Z,6.20
2023-01-27T21:44:37.322Z,6.57
2023-01-27T21:47:04.435Z,7.15
2023-01-27T21:49:33.217Z,7.10
2023-01-27T21:51:59.570Z,6.55
2023-01-27T21:54:25.919Z,6.90
2023-01-27T21:56:52.167Z,6.00
2023-01-27T21:59:18.611Z,6.68
2023-01-27T22:01:45.248Z,6.45
2023-01-27T22:04:11.496Z,6.78
2023-01-27T22:06:37.871Z,6.65
2023-01-27T22:09:04.178Z,6.28
2023-01-27T22:11:30.448Z,6.03
2023-01-27T22:13:56.864Z,6.55
2023-01-27T22:16:25.900Z,5.97
2023-01-27T22:18:52.240Z,6.43
2023-01-27T22:21:18.665Z,5.90
2023-01-27T22:23:45.194Z,6.57
2023-01-27T22:26:11.589Z,6.60
2023-01-27T22:28:38.021Z,6.32
2023-01-27T22:31:04.551Z,6.65
2023-01-27T22:33:32.402Z,6.43
2023-01-27T22:35:59.877Z,6.80
2023-01-27T22:38:26.315Z,6.32
2023-01-27T22:40:56.737Z,6.70
2023-01-27T22:43:23.138Z,6.38
2023-01-27T22:45:49.574Z,6.53
2023-01-27T22:48:16.006Z,6.78
2023-01-27T22:50:42.639Z,6.07
2023-01-27T22:53:09.071Z,6.63
2023-01-27T22:55:35.419Z,6.78
2023-01-27T22:58:02.009Z,6.60
2023-01-27T23:00:28.382Z,6.18
2023-01-27T23:02:54.777Z,6.43
2023-01-27T23:05:21.219Z,6.32
2023-01-27T23:07:47.799Z,6.57
2023-01-27T23:10:14.310Z,6.30
2023-01-27T23:12:40.730Z,5.80
2023-01-27T23:15:07.499Z,6.00
2023-01-27T23:17:33.888Z,6.18
2023-01-27T23:20:00.328Z,5.63
2023-01-27T23:22:26.988Z,5.80
2023-01-27T23:24:53.391Z,5.40
2023-01-27T23:27:19.760Z,6.35
2023-01-27T23:29:46.222Z,5.85
2023-01-27T23:32:12.632Z,5.38
2023-01-27T23:34:39.116Z,6.78
2023-01-27T23:37:05.454Z,5.97
2023-01-27T23:39:31.880Z,6.32
2023-01-27T23:41:58.260Z,6.10
2023-01-27T23:44:24.588Z,6.20
2023-01-27T23:46:50.987Z,6.47
2023-01-27T23:49:17.758Z,6.18
2023-01-27T23:51:44.216Z,6.18
2023-01-27T23:54:10.783Z,6.13
2023-01-27T23:56:37.219Z,7.20
2023-01-27T23:59:03.663Z,5.95
